Time;durP1;ratioP1;P1;durP2;ratioP2;P2;SDS_P1;SDS_P2;PMS_P1;PMS_P2;Temp;Humidity;BMP_temperature;BMP_pressure;BME280_temperature;BME280_humidity;BME280_pressure;Samples;Min_cycle;Max_cycle;Signal;HPM_P1;HPM_P2
2021/06/07 00:00:03;;;;;;;40.60;29.03;;;;;;;-144.99;98.06;52301.34;5061597;28;20362;-75
2021/06/07 00:02:37;;;;;;;45.10;29.20;;;;;;;-144.99;98.24;52338.03;5067962;28;20212;-74
2021/06/07 00:05:15;;;;;;;47.33;31.20;;;;;;;-144.99;98.34;52301.34;5067449;28;20236;-75
2021/06/07 00:07:49;;;;;;;56.13;33.53;;;;;;;-144.99;98.18;52317.66;5068956;28;20287;-74
2021/06/07 00:10:21;;;;;;;40.03;30.03;;;;;;;-144.99;98.54;52289.13;5070992;28;20228;-75
2021/06/07 00:12:53;;;;;;;45.60;29.97;;;;;;;-144.99;98.37;52293.19;5069577;28;20265;-75
2021/06/07 00:15:31;;;;;;;41.00;30.30;;;;;;;-144.99;98.54;52325.81;5070148;28;20239;-76
2021/06/07 00:18:00;;;;;;;44.53;30.93;;;;;;;-144.99;98.67;52313.56;5066564;28;20699;-74
2021/06/07 00:20:39;;;;;;;46.70;37.47;;;;;;;-144.99;98.89;52297.25;5072026;28;20205;-76
2021/06/07 00:23:14;;;;;;;46.80;33.73;;;;;;;-144.99;98.96;52268.72;5070520;28;20691;-76
2021/06/07 00:25:52;;;;;;;44.53;30.57;;;;;;;-144.99;98.95;52329.88;5069519;28;20278;-75
2021/06/07 00:28:24;;;;;;;62.83;33.07;;;;;;;-144.99;99.40;52299.31;5069375;28;20515;-76
2021/06/07 00:31:00;;;;;;;39.80;31.67;;;;;;;-144.99;99.55;52264.66;5070778;28;20214;-74
2021/06/07 00:33:31;;;;;;;39.80;30.30;;;;;;;-144.99;99.45;52285.03;5070725;28;20706;-76
2021/06/07 00:36:05;;;;;;;58.43;32.60;;;;;;;-144.99;99.86;52301.34;5069805;28;20651;-75
2021/06/07 00:38:41;;;;;;;46.27;29.43;;;;;;;-144.99;99.86;52309.50;5070646;28;20216;-76
2021/06/07 00:41:16;;;;;;;41.37;29.30;;;;;;;-144.99;99.78;52297.25;5070378;28;20220;-75
2021/06/07 00:43:54;;;;;;;47.90;32.73;;;;;;;-144.99;99.85;52278.91;5070654;28;20838;-76
2021/06/07 00:46:30;;;;;;;44.50;27.00;;;;;;;-144.99;99.72;52293.19;5065522;28;20519;-75
2021/06/07 00:49:06;;;;;;;55.00;34.47;;;;;;;-144.99;99.58;52268.72;5065412;28;20228;-76
2021/06/07 00:51:46;;;;;;;45.80;31.13;;;;;;;-144.99;99.62;52305.41;5057401;28;20242;-74
2021/06/07 00:54:21;;;;;;;51.17;31.53;;;;;;;-144.99;99.68;52297.25;4720116;28;9999849;-74
2021/06/07 00:56:55;;;;;;;41.77;28.57;;;;;;;-144.99;99.67;52276.88;5068469;28;20669;-73
2021/06/07 00:59:30;;;;;;;52.47;30.33;;;;;;;-144.99;99.57;52297.25;5068015;28;20216;-73
2021/06/07 01:02:05;;;;;;;41.50;31.57;;;;;;;-144.99;99.70;52317.66;5057461;28;20240;-73
2021/06/07 01:04:37;;;;;;;55.53;30.10;;;;;;;-144.99;99.83;52317.66;5071217;28;20228;-74
2021/06/07 01:07:10;;;;;;;50.53;32.43;;;;;;;-144.99;100.00;52297.25;5069563;28;20209;-73
2021/06/07 01:09:44;;;;;;;53.10;30.43;;;;;;;-144.99;100.00;52285.03;5071694;28;20225;-74
2021/06/07 01:12:19;;;;;;;48.10;34.37;;;;;;;-144.99;100.00;52276.88;5071712;28;20271;-74
2021/06/07 01:14:51;;;;;;;43.47;31.17;;;;;;;-144.99;100.00;52321.72;5068892;28;20232;-74
2021/06/07 01:17:27;;;;;;;45.53;30.50;;;;;;;-144.99;100.00;52342.09;5071004;28;20209;-74
2021/06/07 01:20:02;;;;;;;47.87;28.63;;;;;;;-144.99;100.00;52338.03;5068667;28;20196;-72
2021/06/07 01:22:38;;;;;;;44.33;31.53;;;;;;;-144.99;100.00;52333.94;5073282;28;20302;-74
2021/06/07 01:25:19;;;;;;;60.27;31.87;;;;;;;-144.99;100.00;52329.88;5068464;28;20200;-74
2021/06/07 01:27:53;;;;;;;55.17;32.23;;;;;;;-144.99;100.00;52331.91;5072510;28;20314;-73
2021/06/07 01:30:31;;;;;;;50.23;35.43;;;;;;;-144.99;100.00;52309.50;5069879;28;20234;-73
2021/06/07 01:33:01;;;;;;;53.80;32.87;;;;;;;-144.99;100.00;52293.19;5060569;28;20215;-73
2021/06/07 01:35:36;;;;;;;53.13;31.97;;;;;;;-144.99;100.00;52321.72;5071468;28;20221;-73
2021/06/07 01:38:11;;;;;;;48.37;34.80;;;;;;;-144.99;100.00;52289.13;5070730;28;20211;-74
2021/06/07 01:40:48;;;;;;;50.97;34.83;;;;;;;-144.99;100.00;52280.97;5068112;28;20287;-73
2021/06/07 01:43:21;;;;;;;54.40;32.90;;;;;;;-144.99;100.00;52317.66;5069661;28;20241;-74
2021/06/07 01:45:57;;;;;;;60.53;35.43;;;;;;;-144.99;100.00;52276.88;5059093;28;20209;-74
2021/06/07 01:48:32;;;;;;;50.53;30.20;;;;;;;-144.99;100.00;52301.34;5059760;28;20641;-73
2021/06/07 01:51:10;;;;;;;60.07;36.03;;;;;;;-144.99;100.00;52258.53;5064063;28;20561;-74
2021/06/07 01:53:46;;;;;;;54.47;34.30;;;;;;;-144.99;100.00;52297.25;5071923;28;20250;-74
2021/06/07 01:56:21;;;;;;;72.90;37.40;;;;;;;-144.99;100.00;52317.66;5071555;28;20211;-73
2021/06/07 01:58:55;;;;;;;59.60;36.13;;;;;;;-144.99;100.00;52285.03;5071242;28;20223;-73
2021/06/07 02:01:31;;;;;;;63.37;36.60;;;;;;;-144.99;100.00;52329.88;5069040;28;20489;-73
2021/06/07 02:04:02;;;;;;;65.40;37.37;;;;;;;-144.99;100.00;52289.13;5065445;28;20236;-73
2021/06/07 02:06:37;;;;;;;57.60;35.37;;;;;;;-144.99;100.00;52264.66;5070057;28;20234;-73
2021/06/07 02:09:14;;;;;;;59.80;34.67;;;;;;;-144.99;100.00;52264.66;5070141;28;20247;-73
2021/06/07 02:11:48;;;;;;;49.60;33.67;;;;;;;-144.99;100.00;52327.84;5070407;28;20246;-73
2021/06/07 02:14:20;;;;;;;55.73;37.23;;;;;;;-144.99;100.00;52325.81;5066094;28;20517;-74
2021/06/07 02:16:55;;;;;;;49.60;34.20;;;;;;;-144.99;100.00;52338.03;5067826;28;20271;-73
2021/06/07 02:19:29;;;;;;;55.13;35.40;;;;;;;-144.99;100.00;52289.13;5061112;28;20700;-75
2021/06/07 02:22:01;;;;;;;60.70;38.03;;;;;;;-144.99;100.00;52293.19;5070315;28;20298;-74
2021/06/07 02:24:37;;;;;;;52.07;34.03;;;;;;;-144.99;100.00;52295.22;5086420;28;20440;-75
2021/06/07 02:27:12;;;;;;;55.20;34.23;;;;;;;-144.99;100.00;52309.50;5086729;28;20208;-74
2021/06/07 02:29:43;;;;;;;56.77;36.10;;;;;;;-144.99;100.00;52352.28;5086923;28;20255;-75
2021/06/07 02:32:15;;;;;;;63.23;36.67;;;;;;;-144.99;100.00;52301.34;5084182;28;20211;-74
2021/06/07 02:34:50;;;;;;;54.60;33.70;;;;;;;-144.99;100.00;52280.97;5069881;28;20233;-75
2021/06/07 02:37:24;;;;;;;57.50;34.00;;;;;;;-144.99;100.00;52276.88;5068819;28;20204;-75
2021/06/07 02:40:00;;;;;;;55.13;34.83;;;;;;;-144.99;100.00;52317.66;5068262;28;20208;-74
2021/06/07 02:42:35;;;;;;;49.80;35.27;;;;;;;-144.99;100.00;52305.41;5100860;22;20234;-79
2021/06/07 02:45:07;;;;;;;53.83;38.27;;;;;;;-144.99;100.00;52280.97;5062205;28;20285;-80
2021/06/07 02:47:43;;;;;;;48.43;37.60;;;;;;;-144.99;100.00;52317.66;5073954;28;20677;-77
2021/06/07 02:50:20;;;;;;;58.07;38.73;;;;;;;-144.99;100.00;52338.03;5072107;28;20224;-79
2021/06/07 02:52:54;;;;;;;51.67;38.13;;;;;;;-144.99;100.00;52299.31;5076678;28;20228;-82
2021/06/07 02:55:33;;;;;;;47.70;34.80;;;;;;;-144.99;100.00;52240.19;5073859;28;20196;-83
2021/06/07 02:58:09;;;;;;;57.10;38.90;;;;;;;-144.99;100.00;52289.13;5063492;28;20272;-83
2021/06/07 03:00:47;;;;;;;62.77;37.87;;;;;;;-144.99;100.00;52289.13;5075034;28;20242;-82
2021/06/07 03:03:23;;;;;;;57.43;36.43;;;;;;;-144.99;100.00;52342.09;5076688;28;20318;-81
2021/06/07 03:05:59;;;;;;;56.87;40.73;;;;;;;-144.99;100.00;52293.19;5075739;28;20210;-81
2021/06/07 03:08:34;;;;;;;54.83;37.30;;;;;;;-144.99;100.00;52317.66;5074541;28;20204;-81
2021/06/07 03:11:13;;;;;;;59.00;38.23;;;;;;;-144.99;100.00;52285.03;5079751;28;20588;-81
2021/06/07 03:13:46;;;;;;;58.70;33.43;;;;;;;-144.99;100.00;52293.19;5080965;28;20323;-81
2021/06/07 03:16:19;;;;;;;59.93;36.20;;;;;;;-144.99;100.00;52293.19;5081393;28;20249;-81
2021/06/07 03:18:50;;;;;;;52.87;35.97;;;;;;;-144.99;100.00;52297.25;5074217;28;20212;-81
2021/06/07 03:21:25;;;;;;;54.77;37.70;;;;;;;-144.99;100.00;52313.56;5081601;28;20216;-82
2021/06/07 03:23:54;;;;;;;65.30;37.13;;;;;;;-144.99;100.00;52280.97;5083236;28;20251;-82
2021/06/07 03:26:30;;;;;;;68.67;38.03;;;;;;;-144.99;100.00;52321.72;5081355;28;20258;-81
2021/06/07 03:29:05;;;;;;;57.87;36.17;;;;;;;-144.99;100.00;52283.00;5082974;28;20354;-82
2021/06/07 03:31:40;;;;;;;66.60;36.33;;;;;;;-144.99;100.00;52307.47;5074708;28;20201;-82
2021/06/07 03:34:12;;;;;;;56.47;37.20;;;;;;;-144.99;100.00;52289.13;5078460;28;20275;-84
2021/06/07 03:36:44;;;;;;;69.37;41.93;;;;;;;-144.99;100.00;52297.25;5078724;28;20272;-79
2021/06/07 03:39:18;;;;;;;59.17;38.80;;;;;;;-144.99;100.00;52280.97;5084645;28;20272;-83
2021/06/07 03:41:52;;;;;;;65.53;39.17;;;;;;;-144.99;100.00;52252.44;5080797;28;20479;-81
2021/06/07 03:44:23;;;;;;;58.20;37.60;;;;;;;-144.99;100.00;52289.13;5080954;28;20307;-83
2021/06/07 03:46:58;;;;;;;74.23;42.97;;;;;;;-144.99;100.00;52303.38;5071642;28;20269;-80
2021/06/07 03:49:32;;;;;;;64.63;37.87;;;;;;;-144.99;100.00;52272.81;5079215;28;20238;-83
2021/06/07 03:52:07;;;;;;;63.53;40.80;;;;;;;-144.99;100.00;52301.34;5079332;28;20239;-82
2021/06/07 03:54:42;;;;;;;59.63;36.70;;;;;;;-144.99;100.00;52254.47;5075884;28;20224;-85
2021/06/07 03:57:15;;;;;;;66.43;38.53;;;;;;;-144.99;100.00;52317.66;5083630;28;20220;-82
2021/06/07 03:59:50;;;;;;;61.43;38.50;;;;;;;-144.99;100.00;52313.56;5082652;28;20211;-82
2021/06/07 04:02:24;;;;;;;66.20;38.10;;;;;;;-144.99;100.00;52321.72;5081941;28;20276;-83
2021/06/07 04:04:59;;;;;;;60.83;38.70;;;;;;;-144.99;100.00;52313.56;5080593;28;20238;-83
2021/06/07 04:07:34;;;;;;;60.97;38.93;;;;;;;-144.99;100.00;52285.03;5075877;28;20206;-83
2021/06/07 04:10:11;;;;;;;50.30;37.97;;;;;;;-144.99;100.00;52317.66;5076874;28;20223;-82
2021/06/07 04:12:46;;;;;;;79.47;41.70;;;;;;;-144.99;100.00;52350.25;5078665;28;20234;-83
2021/06/07 04:15:19;;;;;;;61.60;39.47;;;;;;;-144.99;100.00;52329.88;5081388;28;20220;-83
2021/06/07 04:17:54;;;;;;;61.90;41.80;;;;;;;-144.99;100.00;52303.38;5080913;28;20216;-84
2021/06/07 04:20:32;;;;;;;61.33;37.60;;;;;;;-144.99;100.00;52307.47;5081856;28;20216;-84
2021/06/07 04:23:07;;;;;;;64.77;35.87;;;;;;;-144.99;100.00;52297.25;5081274;28;20227;-82
2021/06/07 04:25:39;;;;;;;59.60;38.20;;;;;;;-144.99;100.00;52305.41;5082884;28;20287;-83
2021/06/07 04:28:19;;;;;;;61.97;37.30;;;;;;;-144.99;100.00;52268.72;5084971;28;20279;-83
2021/06/07 04:30:53;;;;;;;62.43;38.43;;;;;;;-144.99;100.00;52276.88;5080396;28;20228;-84
2021/06/07 04:33:25;;;;;;;67.63;39.67;;;;;;;-144.99;100.00;52276.88;5074228;28;20231;-84
2021/06/07 04:35:57;;;;;;;65.73;43.97;;;;;;;-144.99;100.00;52244.28;5071733;28;20207;-83
2021/06/07 04:38:29;;;;;;;67.77;40.73;;;;;;;-144.99;100.00;52260.56;5079409;28;20295;-85
2021/06/07 04:41:01;;;;;;;62.87;39.20;;;;;;;-144.99;100.00;52293.19;5081916;28;20613;-85
2021/06/07 04:43:32;;;;;;;64.70;39.90;;;;;;;-144.99;100.00;52283.00;5078827;28;20703;-85
2021/06/07 04:46:06;;;;;;;58.57;39.63;;;;;;;-144.99;100.00;52317.66;5082274;28;20196;-84
2021/06/07 04:48:41;;;;;;;65.63;38.37;;;;;;;-144.99;100.00;52297.25;5081745;28;20555;-85
2021/06/07 04:51:15;;;;;;;50.77;38.10;;;;;;;-144.99;100.00;52276.88;5080938;28;20738;-84
2021/06/07 04:53:50;;;;;;;57.27;33.83;;;;;;;-144.99;100.00;52317.66;5077316;28;20485;-86
2021/06/07 04:56:22;;;;;;;67.67;39.03;;;;;;;-144.99;100.00;52289.13;5084269;28;20796;-85
2021/06/07 04:58:55;;;;;;;57.93;36.77;;;;;;;-144.99;100.00;52287.06;5096673;28;20192;-85
2021/06/07 05:01:30;;;;;;;65.60;37.60;;;;;;;-144.99;100.00;52258.53;5084422;28;20211;-82
2021/06/07 05:04:02;;;;;;;55.93;36.67;;;;;;;-144.99;100.00;52266.69;5078424;28;20557;-82
2021/06/07 05:06:34;;;;;;;55.07;35.53;;;;;;;-144.99;100.00;52309.50;5079437;28;20224;-81
2021/06/07 05:09:08;;;;;;;66.53;40.70;;;;;;;-144.99;100.00;52285.03;5079118;28;20215;-81
2021/06/07 05:11:43;;;;;;;70.03;41.73;;;;;;;-144.99;100.00;52280.97;5078126;28;20277;-81
2021/06/07 05:14:18;;;;;;;76.90;38.10;;;;;;;-144.99;100.00;52285.03;5060137;28;20220;-79
2021/06/07 05:16:50;;;;;;;57.97;34.20;;;;;;;-144.99;100.00;52246.31;5074479;28;20285;-83
2021/06/07 05:19:25;;;;;;;55.73;37.40;;;;;;;-144.99;100.00;52309.50;5078600;28;20651;-85
2021/06/07 05:22:00;;;;;;;59.73;34.60;;;;;;;-144.99;100.00;52319.69;5077701;28;20228;-81
2021/06/07 05:24:29;;;;;;;59.17;34.80;;;;;;;-144.99;100.00;52305.41;5078224;28;20698;-83
2021/06/07 05:27:01;;;;;;;60.30;35.90;;;;;;;-144.99;100.00;52266.69;5081654;28;20208;-80
2021/06/07 05:29:35;;;;;;;57.13;35.37;;;;;;;-144.99;100.00;52280.97;5080307;28;20313;-84
2021/06/07 05:32:13;;;;;;;49.87;34.70;;;;;;;-144.99;100.00;52285.03;5080895;28;20209;-83
2021/06/07 05:34:45;;;;;;;70.60;39.57;;;;;;;-144.99;100.00;52264.66;5082541;28;20228;-84
2021/06/07 05:37:19;;;;;;;78.00;42.53;;;;;;;-144.99;100.00;52283.00;5074764;28;20218;-84
2021/06/07 05:39:54;;;;;;;66.50;38.07;;;;;;;-144.99;100.00;52289.13;5078261;28;20300;-82
2021/06/07 05:42:28;;;;;;;66.73;38.80;;;;;;;-144.99;100.00;52313.56;5081023;28;20280;-83
2021/06/07 05:45:06;;;;;;;57.10;34.87;;;;;;;-144.99;100.00;52280.97;5080451;28;20196;-81
2021/06/07 05:47:41;;;;;;;64.43;41.23;;;;;;;-144.99;99.94;52207.59;5076498;28;20242;-84
2021/06/07 05:50:19;;;;;;;62.53;36.17;;;;;;;-144.99;99.55;52301.34;5080771;28;20284;-85
2021/06/07 05:52:52;;;;;;;55.57;35.50;;;;;;;-144.99;98.90;52272.81;5080207;28;20694;-85
2021/06/07 05:55:28;;;;;;;64.33;37.17;;;;;;;-144.99;98.44;52264.66;5081044;28;20208;-86
2021/06/07 05:58:07;;;;;;;60.40;37.40;;;;;;;-144.99;98.35;52276.88;5077068;28;20642;-83
2021/06/07 06:00:45;;;;;;;52.07;32.50;;;;;;;-144.99;98.08;52232.03;5088630;28;20238;-86
2021/06/07 06:03:20;;;;;;;44.47;31.30;;;;;;;-144.99;97.42;52280.97;5088175;28;20296;-85
2021/06/07 06:05:54;;;;;;;46.83;32.03;;;;;;;-144.99;97.39;52256.50;5079592;28;20208;-82
2021/06/07 06:08:29;;;;;;;48.13;30.80;;;;;;;-144.99;97.30;52268.72;5079848;28;20703;-81
2021/06/07 06:10:58;;;;;;;51.63;39.70;;;;;;;-144.99;96.87;52293.19;5076785;28;20226;-81
2021/06/07 06:13:33;;;;;;;47.13;34.67;;;;;;;-144.99;95.62;52256.50;5071715;28;20220;-80
2021/06/07 06:16:12;;;;;;;54.37;34.50;;;;;;;-144.99;96.26;52236.13;5074937;28;20578;-82
2021/06/07 06:18:43;;;;;;;52.27;30.17;;;;;;;-144.99;96.10;52252.44;5079929;28;20262;-82
2021/06/07 06:21:15;;;;;;;54.20;34.20;;;;;;;-144.99;95.75;52240.19;5079797;28;20653;-82
2021/06/07 06:23:50;;;;;;;47.73;33.53;;;;;;;-144.99;95.38;52244.28;5075889;28;20307;-82
2021/06/07 06:26:25;;;;;;;55.40;32.90;;;;;;;-144.99;95.20;52252.44;5077791;28;20233;-82
2021/06/07 06:28:59;;;;;;;56.57;34.67;;;;;;;-144.99;95.02;52280.97;5077694;28;20740;-83
2021/06/07 06:31:47;;;;;;;71.63;40.87;;;;;;;-144.99;94.20;52248.34;5077478;28;20266;-85
2021/06/07 06:34:20;;;;;;;53.50;36.87;;;;;;;-144.99;94.41;52280.97;5093588;28;20221;-83
2021/06/07 06:36:54;;;;;;;62.40;38.43;;;;;;;-144.99;94.82;52264.66;5078932;28;20204;-78
2021/06/07 06:39:31;;;;;;;58.87;34.47;;;;;;;-144.99;95.00;52268.72;5071032;28;20230;-78
2021/06/07 06:42:06;;;;;;;68.93;42.30;;;;;;;-144.99;95.00;52268.72;5062382;28;20295;-78
2021/06/07 06:44:39;;;;;;;57.10;39.13;;;;;;;-144.99;95.08;52260.56;5072192;28;20208;-80
2021/06/07 06:47:15;;;;;;;63.87;36.97;;;;;;;-144.99;94.73;52242.22;5072602;28;20261;-80
2021/06/07 06:49:46;;;;;;;58.53;34.07;;;;;;;-144.99;94.80;52297.25;5079845;28;20240;-83
2021/06/07 06:52:21;;;;;;;60.93;35.23;;;;;;;-144.99;94.88;52280.97;5077729;28;20264;-82
2021/06/07 06:54:56;;;;;;;56.10;36.57;;;;;;;-144.99;95.46;52244.28;5068692;28;20264;-80
2021/06/07 06:57:30;;;;;;;68.73;40.67;;;;;;;-144.99;95.86;52272.81;5062497;28;20236;-81
2021/06/07 07:00:06;;;;;;;62.47;36.87;;;;;;;-144.99;95.90;52256.50;5065753;28;20220;-77
2021/06/07 07:02:39;;;;;;;56.70;33.03;;;;;;;-144.99;95.68;52305.41;5072779;28;20498;-81
2021/06/07 07:05:14;;;;;;;54.23;36.53;;;;;;;-144.99;95.86;52305.41;5067722;28;20284;-77
2021/06/07 07:07:49;;;;;;;52.07;33.63;;;;;;;-144.99;95.71;52299.31;5069665;28;20641;-77
2021/06/07 07:10:23;;;;;;;54.90;32.80;;;;;;;-144.99;95.70;52268.72;5070811;28;20231;-75
2021/06/07 07:12:58;;;;;;;54.33;34.63;;;;;;;-144.99;95.51;52270.78;5071481;28;20218;-77
2021/06/07 07:15:32;;;;;;;56.37;35.23;;;;;;;-144.99;95.13;52276.88;5072824;28;20208;-78
2021/06/07 07:18:07;;;;;;;44.73;29.83;;;;;;;-144.99;94.79;52264.66;5070574;28;20504;-77
2021/06/07 07:20:41;;;;;;;57.10;33.43;;;;;;;-144.99;94.90;52293.19;5071193;28;20235;-79
2021/06/07 07:23:17;;;;;;;45.63;29.20;;;;;;;-144.99;94.62;52289.13;5074529;28;20228;-77
2021/06/07 07:25:51;;;;;;;45.17;30.37;;;;;;;-144.99;94.50;52256.50;5073096;28;20373;-80
2021/06/07 07:28:24;;;;;;;56.47;33.87;;;;;;;-144.99;94.50;52268.72;5071215;28;20664;-77
2021/06/07 07:30:58;;;;;;;53.20;33.33;;;;;;;-144.99;94.34;52303.38;5064398;28;20289;-77
2021/06/07 07:33:38;;;;;;;61.50;35.70;;;;;;;-144.99;94.66;52260.56;5073735;28;20524;-79
2021/06/07 07:36:15;;;;;;;66.50;32.87;;;;;;;-144.99;94.82;52280.97;5073643;28;20258;-80
2021/06/07 07:38:50;;;;;;;61.63;36.73;;;;;;;-144.99;94.88;52264.66;5068804;28;20212;-79
2021/06/07 07:41:27;;;;;;;62.53;36.20;;;;;;;-144.99;95.13;52289.13;5073030;28;20200;-78
2021/06/07 07:43:59;;;;;;;60.43;31.87;;;;;;;-144.99;94.72;52227.97;5073129;28;20332;-79
2021/06/07 07:46:30;;;;;;;60.27;35.53;;;;;;;-144.99;95.08;52293.19;5073428;28;20301;-79
2021/06/07 07:49:06;;;;;;;55.10;34.33;;;;;;;-144.99;95.22;52240.19;5074797;28;20673;-81
2021/06/07 07:51:38;;;;;;;62.60;34.40;;;;;;;-144.99;95.30;52285.03;5073574;28;20232;-81
2021/06/07 07:54:13;;;;;;;58.47;33.30;;;;;;;-144.99;95.18;52264.66;5068160;28;20226;-79
2021/06/07 07:56:48;;;;;;;61.23;36.97;;;;;;;-144.99;95.07;52297.25;5074739;28;20265;-80
2021/06/07 07:59:24;;;;;;;49.80;33.77;;;;;;;-144.99;94.99;52309.50;5065882;28;20245;-79
2021/06/07 08:02:00;;;;;;;45.67;30.47;;;;;;;-144.99;94.72;52272.81;5075092;28;20284;-77
2021/06/07 08:04:41;;;;;;;50.30;30.90;;;;;;;-144.99;94.69;52240.19;5070178;28;20216;-80
2021/06/07 08:07:16;;;;;;;49.37;32.87;;;;;;;-144.99;93.92;52313.56;5083957;28;20201;-81
2021/06/07 08:09:49;;;;;;;59.70;36.73;;;;;;;-144.99;93.89;52283.00;5076404;28;20232;-80
2021/06/07 08:12:24;;;;;;;64.37;37.67;;;;;;;-144.99;93.78;52285.03;5075076;28;20222;-81
2021/06/07 08:14:58;;;;;;;52.77;33.23;;;;;;;-144.99;94.07;52289.13;5074723;28;20716;-82
2021/06/07 08:17:33;;;;;;;49.47;32.80;;;;;;;-144.99;94.03;52260.56;5063798;28;20253;-80
2021/06/07 08:20:11;;;;;;;56.87;36.23;;;;;;;-144.99;94.01;52297.25;5075690;28;20287;-82
2021/06/07 08:22:43;;;;;;;64.37;35.90;;;;;;;-144.99;93.99;52252.44;5077116;28;20738;-81
2021/06/07 08:25:18;;;;;;;65.20;33.30;;;;;;;-144.99;94.16;52276.88;5072358;28;20607;-80
2021/06/07 08:27:50;;;;;;;57.67;36.20;;;;;;;-144.99;94.36;52293.19;5074964;28;20287;-81
2021/06/07 08:30:28;;;;;;;58.97;37.27;;;;;;;-144.99;94.46;52283.00;5071696;28;20311;-80
2021/06/07 08:33:02;;;;;;;62.10;32.30;;;;;;;-144.99;94.58;52280.97;5076856;28;20364;-81
2021/06/07 08:35:41;;;;;;;60.43;36.30;;;;;;;-144.99;94.77;52276.88;5075527;28;20366;-83
2021/06/07 08:38:17;;;;;;;51.40;31.80;;;;;;;-144.99;94.84;52285.03;5067244;28;20366;-83
2021/06/07 08:40:53;;;;;;;54.97;35.93;;;;;;;-144.99;94.78;52268.72;5074602;28;20207;-82
2021/06/07 08:43:28;;;;;;;56.90;35.57;;;;;;;-144.99;94.83;52325.81;5073181;28;20382;-84
2021/06/07 08:46:02;;;;;;;64.50;37.00;;;;;;;-144.99;95.04;52276.88;5069838;28;20243;-82
2021/06/07 08:48:37;;;;;;;64.67;38.33;;;;;;;-144.99;94.92;52260.56;5072941;28;20733;-84
2021/06/07 08:51:13;;;;;;;57.83;34.57;;;;;;;-144.99;94.90;52289.13;5076331;28;20234;-84
2021/06/07 08:53:46;;;;;;;65.10;37.60;;;;;;;-144.99;94.96;52276.88;5078501;28;20229;-82
2021/06/07 08:56:21;;;;;;;60.00;35.93;;;;;;;-144.99;94.61;52276.88;5074075;28;20751;-81
2021/06/07 08:58:57;;;;;;;57.73;32.83;;;;;;;-144.99;94.41;52285.03;5074185;28;20737;-83
2021/06/07 09:01:31;;;;;;;62.80;39.03;;;;;;;-144.99;94.08;52250.38;5074760;28;20289;-82
2021/06/07 09:04:15;;;;;;;58.00;36.53;;;;;;;-144.99;93.87;52264.66;5074928;28;20228;-84
2021/06/07 09:06:53;;;;;;;56.93;32.53;;;;;;;-144.99;93.63;52289.13;5074682;28;20354;-84
2021/06/07 09:09:28;;;;;;;53.90;38.87;;;;;;;-144.99;93.44;52240.19;5072051;28;20442;-82
2021/06/07 09:12:08;;;;;;;57.53;36.87;;;;;;;-144.99;93.15;52280.97;5071872;28;20463;-75
2021/06/07 09:14:50;;;;;;;52.73;35.57;;;;;;;-144.99;93.09;52248.34;5070684;28;20201;-75
2021/06/07 09:17:26;;;;;;;57.20;34.83;;;;;;;-144.99;93.38;52264.66;5070108;28;20220;-82
2021/06/07 09:20:15;;;;;;;59.33;33.17;;;;;;;-144.99;92.96;52264.66;5070032;28;20250;-87
2021/06/07 09:22:56;;;;;;;62.93;39.37;;;;;;;-144.99;92.87;52246.31;5095619;28;20220;-86
2021/06/07 09:25:32;;;;;;;50.30;37.00;;;;;;;-144.99;92.58;52250.38;5096668;28;20200;-87
2021/06/07 09:28:19;;;;;;;59.83;37.40;;;;;;;-144.99;92.54;52285.03;5094943;28;20220;-85
2021/06/07 09:30:57;;;;;;;54.80;37.37;;;;;;;-144.99;92.35;52252.44;5080284;28;20263;-84
2021/06/07 09:33:37;;;;;;;58.20;40.17;;;;;;;-144.99;92.62;52232.03;5076755;28;20252;-81
2021/06/07 09:36:23;;;;;;;46.50;32.33;;;;;;;-144.99;92.63;52244.28;5080085;28;20271;-83
2021/06/07 09:39:23;;;;;;;52.73;33.27;;;;;;;-144.99;92.57;52280.97;5077079;28;20204;-82
2021/06/07 09:42:01;;;;;;;57.23;38.07;;;;;;;-144.99;92.49;52252.44;5076658;28;20213;-83
2021/06/07 09:44:46;;;;;;;58.63;34.40;;;;;;;-144.99;92.28;52309.50;5075216;28;20204;-82
2021/06/07 09:47:26;;;;;;;48.30;34.00;;;;;;;-144.99;92.40;52250.38;5075750;28;20214;-84
2021/06/07 09:50:04;;;;;;;53.67;32.17;;;;;;;-144.99;91.63;52289.13;5076970;28;20330;-85
2021/06/07 09:52:47;;;;;;;47.30;32.03;;;;;;;-144.99;91.39;52248.34;5077869;28;20645;-83
2021/06/07 09:55:24;;;;;;;47.77;33.63;;;;;;;-144.99;91.45;52248.34;5077636;28;20225;-83
2021/06/07 09:58:00;;;;;;;49.37;35.30;;;;;;;-144.99;91.62;52293.19;5076956;28;20236;-84
2021/06/07 10:00:53;;;;;;;52.03;31.83;;;;;;;-144.99;91.94;52264.66;5077742;28;20237;-84
2021/06/07 10:03:29;;;;;;;49.07;33.87;;;;;;;-144.99;92.38;52268.72;5071096;28;20263;-82
2021/06/07 10:06:03;;;;;;;43.00;33.40;;;;;;;-144.99;92.06;52293.19;5069123;28;20726;-82
2021/06/07 10:08:46;;;;;;;44.47;28.30;;;;;;;-144.99;92.16;52268.72;5073915;28;20233;-80
2021/06/07 10:11:27;;;;;;;39.80;30.10;;;;;;;-144.99;91.96;52264.66;5067195;28;20783;-84
2021/06/07 10:14:14;;;;;;;31.53;23.10;;;;;;;-144.99;91.56;52250.38;5081225;28;20232;-84
2021/06/07 10:16:57;;;;;;;31.93;22.10;;;;;;;-144.99;91.67;52256.50;5077864;28;20249;-84
2021/06/07 10:19:33;;;;;;;37.13;27.53;;;;;;;-144.99;91.74;52262.63;5079444;28;20236;-85
2021/06/07 10:22:09;;;;;;;33.03;26.23;;;;;;;-144.99;91.70;52223.88;5079105;28;20305;-84
2021/06/07 10:24:41;;;;;;;30.83;22.83;;;;;;;-144.99;91.81;52266.69;5069833;28;20206;-84
2021/06/07 10:27:22;;;;;;;27.50;24.33;;;;;;;-144.99;91.92;52248.34;5079892;28;20719;-85
2021/06/07 10:29:56;;;;;;;28.70;21.27;;;;;;;-144.99;91.90;52260.56;5074859;28;20208;-84
2021/06/07 10:32:30;;;;;;;29.80;21.90;;;;;;;-144.99;91.96;52236.13;5068223;28;20307;-84
2021/06/07 10:35:09;;;;;;;31.93;24.13;;;;;;;-144.99;90.77;52240.19;5073954;28;20773;-83
2021/06/07 10:38:08;;;;;;;35.80;24.83;;;;;;;-144.99;90.10;52248.34;5078391;28;20223;-83
2021/06/07 10:40:46;;;;;;;35.03;27.43;;;;;;;-144.99;88.41;52252.44;5074198;28;20213;-84
2021/06/07 10:43:22;;;;;;;35.77;25.90;;;;;;;-144.99;87.96;52223.88;5075177;28;20235;-83
2021/06/07 10:45:57;;;;;;;32.47;24.97;;;;;;;-144.99;85.56;52223.88;5075261;28;20284;-83
2021/06/07 10:48:40;;;;;;;32.20;26.93;;;;;;;-144.99;84.24;52246.31;5074516;28;20680;-82
2021/06/07 10:51:14;;;;;;;36.37;25.87;;;;;;;-144.99;83.67;52246.31;5072909;28;20242;-85
2021/06/07 10:53:51;;;;;;;38.57;28.73;;;;;;;-144.99;84.15;52256.50;5079076;28;20399;-85
2021/06/07 10:56:31;;;;;;;29.90;24.87;;;;;;;-144.99;84.03;52227.97;5078952;28;20666;-83
2021/06/07 10:59:16;;;;;;;40.60;27.10;;;;;;;-144.99;84.61;52244.28;5074229;28;20402;-84
2021/06/07 11:01:53;;;;;;;35.03;27.63;;;;;;;-144.99;85.66;52289.13;5075406;28;20241;-82
2021/06/07 11:04:37;;;;;;;38.77;26.70;;;;;;;-144.99;86.37;52272.81;5074858;28;20262;-83
2021/06/07 11:07:21;;;;;;;28.57;25.07;;;;;;;-144.99;86.69;52254.47;5068110;28;20213;-83
2021/06/07 11:10:29;;;;;;;38.70;27.90;;;;;;;-144.99;86.94;52250.38;5076585;28;20210;-82
2021/06/07 11:13:07;;;;;;;33.60;26.53;;;;;;;-144.99;87.20;52289.13;5068357;28;20226;-82
2021/06/07 11:15:53;;;;;;;34.30;27.63;;;;;;;-144.99;87.40;52293.19;5070629;28;20204;-84
2021/06/07 11:18:37;;;;;;;39.43;30.03;;;;;;;-144.99;87.60;52256.50;5069458;28;20278;-78
2021/06/07 11:21:33;;;;;;;31.23;25.73;;;;;;;-144.99;87.65;52232.03;5070864;28;20219;-79
2021/06/07 11:24:25;;;;;;;44.50;29.40;;;;;;;-144.99;86.93;52268.72;5065655;28;20223;-77
2021/06/07 11:26:57;;;;;;;37.73;30.07;;;;;;;-144.99;86.68;52285.03;5062491;28;20200;-74
2021/06/07 11:29:32;;;;;;;41.50;31.57;;;;;;;-144.99;86.89;52244.28;5063885;28;20733;-75
2021/06/07 11:32:17;;;;;;;45.17;32.33;;;;;;;-144.99;85.93;52219.81;5066018;28;20239;-82
2021/06/07 11:34:56;;;;;;;44.40;32.53;;;;;;;-144.99;85.29;52240.19;5068348;28;20215;-79
2021/06/07 11:37:42;;;;;;;33.00;28.50;;;;;;;-144.99;84.71;52223.88;5068247;28;20211;-81